sensor_id;sensor_type;location;lat;lon;timestamp;temperature;humidity
13569;DHT22;6856;51.460;7.158;2023-06-24T00:02:05;23.30;51.70
13569;DHT22;6856;51.460;7.158;2023-06-24T00:04:41;23.20;51.80
13569;DHT22;6856;51.460;7.158;2023-06-24T00:07:15;23.20;51.90
13569;DHT22;6856;51.460;7.158;2023-06-24T00:09:49;23.20;51.90
13569;DHT22;6856;51.460;7.158;2023-06-24T00:12:23;23.20;51.80
13569;DHT22;6856;51.460;7.158;2023-06-24T00:14:58;23.10;52.00
13569;DHT22;6856;51.460;7.158;2023-06-24T00:17:33;23.10;52.00
13569;DHT22;6856;51.460;7.158;2023-06-24T00:20:10;23.10;52.10
13569;DHT22;6856;51.460;7.158;2023-06-24T00:22:47;23.00;52.20
13569;DHT22;6856;51.460;7.158;2023-06-24T00:25:20;23.00;52.10
13569;DHT22;6856;51.460;7.158;2023-06-24T00:27:54;23.00;52.10
13569;DHT22;6856;51.460;7.158;2023-06-24T00:30:29;23.00;52.30
13569;DHT22;6856;51.460;7.158;2023-06-24T00:33:07;22.90;52.20
13569;DHT22;6856;51.460;7.158;2023-06-24T00:35:46;22.90;52.40
13569;DHT22;6856;51.460;7.158;2023-06-24T00:38:21;22.90;52.50
13569;DHT22;6856;51.460;7.158;2023-06-24T00:40:55;22.80;52.30
13569;DHT22;6856;51.460;7.158;2023-06-24T00:43:29;22.80;52.50
13569;DHT22;6856;51.460;7.158;2023-06-24T00:46:03;22.80;52.40
13569;DHT22;6856;51.460;7.158;2023-06-24T00:48:38;22.80;52.50
13569;DHT22;6856;51.460;7.158;2023-06-24T00:51:14;22.70;52.50
13569;DHT22;6856;51.460;7.158;2023-06-24T00:53:49;22.70;52.50
13569;DHT22;6856;51.460;7.158;2023-06-24T00:56:27;22.70;52.50
13569;DHT22;6856;51.460;7.158;2023-06-24T00:59:07;22.70;52.70
13569;DHT22;6856;51.460;7.158;2023-06-24T01:01:44;22.60;52.60
13569;DHT22;6856;51.460;7.158;2023-06-24T01:04:22;22.60;52.60
13569;DHT22;6856;51.460;7.158;2023-06-24T01:06:59;22.60;52.80
13569;DHT22;6856;51.460;7.158;2023-06-24T01:09:35;22.50;52.70
13569;DHT22;6856;51.460;7.158;2023-06-24T01:12:09;22.50;52.70
13569;DHT22;6856;51.460;7.158;2023-06-24T01:14:44;22.50;52.70
13569;DHT22;6856;51.460;7.158;2023-06-24T01:17:23;22.50;52.80
13569;DHT22;6856;51.460;7.158;2023-06-24T01:20:05;22.50;52.90
13569;DHT22;6856;51.460;7.158;2023-06-24T01:23:19;22.40;53.00
13569;DHT22;6856;51.460;7.158;2023-06-24T01:26:41;22.40;53.10
13569;DHT22;6856;51.460;7.158;2023-06-24T01:30:12;22.40;53.20
13569;DHT22;6856;51.460;7.158;2023-06-24T01:33:09;22.30;53.10
13569;DHT22;6856;51.460;7.158;2023-06-24T01:35:48;22.30;52.80
13569;DHT22;6856;51.460;7.158;2023-06-24T01:38:30;22.20;52.80
13569;DHT22;6856;51.460;7.158;2023-06-24T01:41:12;22.20;52.90
13569;DHT22;6856;51.460;7.158;2023-06-24T01:43:51;22.20;53.00
13569;DHT22;6856;51.460;7.158;2023-06-24T01:46:29;22.20;53.00
13569;DHT22;6856;51.460;7.158;2023-06-24T01:49:07;22.10;53.00
13569;DHT22;6856;51.460;7.158;2023-06-24T01:51:48;22.10;53.10
13569;DHT22;6856;51.460;7.158;2023-06-24T01:54:26;22.10;53.10
13569;DHT22;6856;51.460;7.158;2023-06-24T01:57:06;22.10;53.10
13569;DHT22;6856;51.460;7.158;2023-06-24T01:59:45;22.10;53.10
13569;DHT22;6856;51.460;7.158;2023-06-24T02:02:21;22.10;53.10
13569;DHT22;6856;51.460;7.158;2023-06-24T02:04:59;22.00;53.10
13569;DHT22;6856;51.460;7.158;2023-06-24T02:07:37;22.00;53.20
13569;DHT22;6856;51.460;7.158;2023-06-24T02:10:16;22.00;53.10
13569;DHT22;6856;51.460;7.158;2023-06-24T02:12:53;22.00;53.10
13569;DHT22;6856;51.460;7.158;2023-06-24T02:15:29;22.00;53.30
13569;DHT22;6856;51.460;7.158;2023-06-24T02:18:05;22.00;53.20
13569;DHT22;6856;51.460;7.158;2023-06-24T02:20:44;22.00;53.20
13569;DHT22;6856;51.460;7.158;2023-06-24T02:23:20;21.90;53.30
13569;DHT22;6856;51.460;7.158;2023-06-24T02:25:57;22.00;53.30
13569;DHT22;6856;51.460;7.158;2023-06-24T02:28:33;21.90;53.30
13569;DHT22;6856;51.460;7.158;2023-06-24T02:31:10;21.90;53.30
13569;DHT22;6856;51.460;7.158;2023-06-24T02:33:46;21.90;53.40
13569;DHT22;6856;51.460;7.158;2023-06-24T02:36:22;21.90;53.30
13569;DHT22;6856;51.460;7.158;2023-06-24T02:38:56;21.90;53.30
13569;DHT22;6856;51.460;7.158;2023-06-24T02:41:31;21.90;53.50
13569;DHT22;6856;51.460;7.158;2023-06-24T02:44:06;21.80;53.30
13569;DHT22;6856;51.460;7.158;2023-06-24T02:46:42;21.80;53.40
13569;DHT22;6856;51.460;7.158;2023-06-24T02:49:19;21.80;53.60
13569;DHT22;6856;51.460;7.158;2023-06-24T02:51:59;21.80;53.60
13569;DHT22;6856;51.460;7.158;2023-06-24T02:54:33;21.80;53.60
13569;DHT22;6856;51.460;7.158;2023-06-24T02:57:13;21.70;53.60
13569;DHT22;6856;51.460;7.158;2023-06-24T02:59:52;21.70;53.50
13569;DHT22;6856;51.460;7.158;2023-06-24T03:02:29;21.70;52.80
13569;DHT22;6856;51.460;7.158;2023-06-24T03:05:05;21.70;53.70
13569;DHT22;6856;51.460;7.158;2023-06-24T03:07:42;21.70;53.80
13569;DHT22;6856;51.460;7.158;2023-06-24T03:10:17;21.60;53.70
13569;DHT22;6856;51.460;7.158;2023-06-24T03:12:51;21.60;53.60
13569;DHT22;6856;51.460;7.158;2023-06-24T03:19:18;21.60;54.10
13569;DHT22;6856;51.460;7.158;2023-06-24T03:21:52;21.60;53.60
13569;DHT22;6856;51.460;7.158;2023-06-24T03:24:27;21.50;53.70
13569;DHT22;6856;51.460;7.158;2023-06-24T03:27:02;21.50;53.80
13569;DHT22;6856;51.460;7.158;2023-06-24T03:29:37;21.50;53.90
13569;DHT22;6856;51.460;7.158;2023-06-24T03:32:12;21.50;53.90
13569;DHT22;6856;51.460;7.158;2023-06-24T03:34:47;21.50;53.90
13569;DHT22;6856;51.460;7.158;2023-06-24T03:37:21;21.50;54.00
13569;DHT22;6856;51.460;7.158;2023-06-24T03:39:57;21.50;53.90
13569;DHT22;6856;51.460;7.158;2023-06-24T03:42:32;21.50;54.20
13569;DHT22;6856;51.460;7.158;2023-06-24T03:45:07;21.50;54.30
13569;DHT22;6856;51.460;7.158;2023-06-24T03:47:42;21.50;54.30
13569;DHT22;6856;51.460;7.158;2023-06-24T03:50:16;21.50;54.20
13569;DHT22;6856;51.460;7.158;2023-06-24T03:52:52;21.40;54.30
13569;DHT22;6856;51.460;7.158;2023-06-24T03:55:29;21.40;54.90
13569;DHT22;6856;51.460;7.158;2023-06-24T03:58:03;21.50;54.30
13569;DHT22;6856;51.460;7.158;2023-06-24T04:00:40;21.50;54.50
13569;DHT22;6856;51.460;7.158;2023-06-24T04:03:16;21.50;54.50
13569;DHT22;6856;51.460;7.158;2023-06-24T04:05:53;21.50;54.40
13569;DHT22;6856;51.460;7.158;2023-06-24T04:08:28;21.50;54.50
13569;DHT22;6856;51.460;7.158;2023-06-24T04:11:04;21.50;54.50
13569;DHT22;6856;51.460;7.158;2023-06-24T04:13:38;21.50;54.60
13569;DHT22;6856;51.460;7.158;2023-06-24T04:16:12;21.40;54.50
13569;DHT22;6856;51.460;7.158;2023-06-24T04:18:46;21.50;54.50
13569;DHT22;6856;51.460;7.158;2023-06-24T04:21:21;21.50;54.60
13569;DHT22;6856;51.460;7.158;2023-06-24T04:23:55;21.50;54.60
13569;DHT22;6856;51.460;7.158;2023-06-24T04:26:32;21.50;54.50
13569;DHT22;6856;51.460;7.158;2023-06-24T04:29:05;21.50;54.70
13569;DHT22;6856;51.460;7.158;2023-06-24T04:31:40;21.50;54.50
13569;DHT22;6856;51.460;7.158;2023-06-24T04:34:13;21.50;54.80
13569;DHT22;6856;51.460;7.158;2023-06-24T04:36:48;21.60;54.70
13569;DHT22;6856;51.460;7.158;2023-06-24T04:39:22;21.60;54.80
13569;DHT22;6856;51.460;7.158;2023-06-24T04:41:57;21.60;54.70
13569;DHT22;6856;51.460;7.158;2023-06-24T04:44:32;21.60;54.80
13569;DHT22;6856;51.460;7.158;2023-06-24T04:47:07;21.60;54.80
13569;DHT22;6856;51.460;7.158;2023-06-24T04:49:42;21.60;54.90
13569;DHT22;6856;51.460;7.158;2023-06-24T04:52:16;21.60;55.00
13569;DHT22;6856;51.460;7.158;2023-06-24T04:54:51;21.60;54.90
13569;DHT22;6856;51.460;7.158;2023-06-24T04:57:29;21.60;55.00
13569;DHT22;6856;51.460;7.158;2023-06-24T05:00:05;21.70;55.10
13569;DHT22;6856;51.460;7.158;2023-06-24T05:02:41;21.70;55.00
13569;DHT22;6856;51.460;7.158;2023-06-24T05:05:16;21.70;54.80
13569;DHT22;6856;51.460;7.158;2023-06-24T05:07:50;21.70;54.80
13569;DHT22;6856;51.460;7.158;2023-06-24T05:10:25;21.70;54.90
13569;DHT22;6856;51.460;7.158;2023-06-24T05:13:01;21.70;55.10
13569;DHT22;6856;51.460;7.158;2023-06-24T05:15:34;21.70;55.10
13569;DHT22;6856;51.460;7.158;2023-06-24T05:18:09;21.70;55.30
13569;DHT22;6856;51.460;7.158;2023-06-24T05:20:43;21.70;55.20
13569;DHT22;6856;51.460;7.158;2023-06-24T05:23:17;21.80;55.40
13569;DHT22;6856;51.460;7.158;2023-06-24T05:25:51;21.80;55.20
13569;DHT22;6856;51.460;7.158;2023-06-24T05:28:28;21.80;55.30
13569;DHT22;6856;51.460;7.158;2023-06-24T05:31:02;21.90;55.30
13569;DHT22;6856;51.460;7.158;2023-06-24T05:33:36;21.90;55.20
13569;DHT22;6856;51.460;7.158;2023-06-24T05:36:11;22.00;55.20
13569;DHT22;6856;51.460;7.158;2023-06-24T05:38:45;22.00;55.60
13569;DHT22;6856;51.460;7.158;2023-06-24T05:41:20;22.00;55.40
13569;DHT22;6856;51.460;7.158;2023-06-24T05:44:03;22.10;55.40
13569;DHT22;6856;51.460;7.158;2023-06-24T05:46:38;22.10;55.90
13569;DHT22;6856;51.460;7.158;2023-06-24T05:49:13;22.20;55.80
13569;DHT22;6856;51.460;7.158;2023-06-24T05:51:46;22.20;55.70
13569;DHT22;6856;51.460;7.158;2023-06-24T05:54:20;22.30;55.80
13569;DHT22;6856;51.460;7.158;2023-06-24T05:56:55;22.30;55.70
13569;DHT22;6856;51.460;7.158;2023-06-24T05:59:31;22.40;55.70
13569;DHT22;6856;51.460;7.158;2023-06-24T06:02:06;22.50;55.70
13569;DHT22;6856;51.460;7.158;2023-06-24T06:04:40;22.50;55.60
13569;DHT22;6856;51.460;7.158;2023-06-24T06:07:18;22.60;55.50
13569;DHT22;6856;51.460;7.158;2023-06-24T06:09:52;22.60;55.30
13569;DHT22;6856;51.460;7.158;2023-06-24T06:12:29;22.60;55.60
13569;DHT22;6856;51.460;7.158;2023-06-24T06:15:09;22.60;55.10
13569;DHT22;6856;51.460;7.158;2023-06-24T06:17:47;22.70;55.60
13569;DHT22;6856;51.460;7.158;2023-06-24T06:20:22;22.70;55.70
13569;DHT22;6856;51.460;7.158;2023-06-24T06:22:57;22.70;55.70
13569;DHT22;6856;51.460;7.158;2023-06-24T06:25:31;22.80;56.10
13569;DHT22;6856;51.460;7.158;2023-06-24T06:28:05;22.80;55.60
13569;DHT22;6856;51.460;7.158;2023-06-24T06:30:44;22.90;56.10
13569;DHT22;6856;51.460;7.158;2023-06-24T06:33:18;23.00;56.50
13569;DHT22;6856;51.460;7.158;2023-06-24T06:35:52;23.00;56.00
13569;DHT22;6856;51.460;7.158;2023-06-24T06:38:26;23.10;55.90
13569;DHT22;6856;51.460;7.158;2023-06-24T06:41:01;23.20;55.90
13569;DHT22;6856;51.460;7.158;2023-06-24T06:43:35;23.30;56.20
13569;DHT22;6856;51.460;7.158;2023-06-24T06:46:13;23.30;56.30
13569;DHT22;6856;51.460;7.158;2023-06-24T06:48:47;23.40;56.40
13569;DHT22;6856;51.460;7.158;2023-06-24T06:51:22;23.50;56.90
13569;DHT22;6856;51.460;7.158;2023-06-24T06:53:58;23.50;56.20
13569;DHT22;6856;51.460;7.158;2023-06-24T06:56:33;23.60;56.10
13569;DHT22;6856;51.460;7.158;2023-06-24T06:59:07;23.70;56.30
13569;DHT22;6856;51.460;7.158;2023-06-24T07:01:43;23.80;56.20
13569;DHT22;6856;51.460;7.158;2023-06-24T07:04:17;23.80;55.80
13569;DHT22;6856;51.460;7.158;2023-06-24T07:06:51;23.90;56.20
13569;DHT22;6856;51.460;7.158;2023-06-24T07:09:25;24.00;56.20
13569;DHT22;6856;51.460;7.158;2023-06-24T07:12:01;24.10;56.50
13569;DHT22;6856;51.460;7.158;2023-06-24T07:14:35;24.20;56.30
13569;DHT22;6856;51.460;7.158;2023-06-24T07:17:12;24.30;56.50
13569;DHT22;6856;51.460;7.158;2023-06-24T07:19:46;24.30;56.50
13569;DHT22;6856;51.460;7.158;2023-06-24T07:22:20;24.50;56.20
13569;DHT22;6856;51.460;7.158;2023-06-24T07:24:54;24.50;56.10
13569;DHT22;6856;51.460;7.158;2023-06-24T07:27:29;24.70;56.30
13569;DHT22;6856;51.460;7.158;2023-06-24T07:30:04;24.70;55.90
13569;DHT22;6856;51.460;7.158;2023-06-24T07:32:40;24.90;56.10
13569;DHT22;6856;51.460;7.158;2023-06-24T07:35:14;24.90;55.90
13569;DHT22;6856;51.460;7.158;2023-06-24T07:37:51;25.00;55.50
13569;DHT22;6856;51.460;7.158;2023-06-24T07:40:25;25.10;56.00
13569;DHT22;6856;51.460;7.158;2023-06-24T07:42:59;25.20;56.40
13569;DHT22;6856;51.460;7.158;2023-06-24T07:45:35;25.30;56.10
13569;DHT22;6856;51.460;7.158;2023-06-24T07:48:13;25.30;55.40
13569;DHT22;6856;51.460;7.158;2023-06-24T07:50:47;25.40;55.40
13569;DHT22;6856;51.460;7.158;2023-06-24T07:53:22;25.40;55.10
13569;DHT22;6856;51.460;7.158;2023-06-24T07:55:56;25.50;55.20
13569;DHT22;6856;51.460;7.158;2023-06-24T07:58:30;25.50;55.10
13569;DHT22;6856;51.460;7.158;2023-06-24T08:01:04;25.50;55.10
13569;DHT22;6856;51.460;7.158;2023-06-24T08:03:40;25.60;55.00
13569;DHT22;6856;51.460;7.158;2023-06-24T08:06:14;25.60;55.40
13569;DHT22;6856;51.460;7.158;2023-06-24T08:08:50;25.70;55.60
13569;DHT22;6856;51.460;7.158;2023-06-24T08:11:23;25.80;55.70
13569;DHT22;6856;51.460;7.158;2023-06-24T08:13:57;25.90;55.30
13569;DHT22;6856;51.460;7.158;2023-06-24T08:16:31;26.00;55.40
13569;DHT22;6856;51.460;7.158;2023-06-24T08:19:08;26.10;55.10
13569;DHT22;6856;51.460;7.158;2023-06-24T08:21:43;26.10;55.00
13569;DHT22;6856;51.460;7.158;2023-06-24T08:24:17;26.20;55.10
13569;DHT22;6856;51.460;7.158;2023-06-24T08:26:52;26.30;54.90
13569;DHT22;6856;51.460;7.158;2023-06-24T08:29:28;26.30;54.60
13569;DHT22;6856;51.460;7.158;2023-06-24T08:32:02;26.40;55.10
13569;DHT22;6856;51.460;7.158;2023-06-24T08:34:40;26.50;54.70
13569;DHT22;6856;51.460;7.158;2023-06-24T08:37:14;26.50;54.70
13569;DHT22;6856;51.460;7.158;2023-06-24T08:39:48;26.70;55.00
13569;DHT22;6856;51.460;7.158;2023-06-24T08:42:23;26.70;54.70
13569;DHT22;6856;51.460;7.158;2023-06-24T08:44:58;26.80;54.60
13569;DHT22;6856;51.460;7.158;2023-06-24T08:47:33;26.90;54.30
13569;DHT22;6856;51.460;7.158;2023-06-24T08:50:12;27.00;53.40
13569;DHT22;6856;51.460;7.158;2023-06-24T08:52:51;27.10;52.60
13569;DHT22;6856;51.460;7.158;2023-06-24T08:55:28;27.10;52.70
13569;DHT22;6856;51.460;7.158;2023-06-24T08:58:06;27.20;52.70
13569;DHT22;6856;51.460;7.158;2023-06-24T09:00:40;27.30;52.50
13569;DHT22;6856;51.460;7.158;2023-06-24T09:03:16;27.40;52.60
13569;DHT22;6856;51.460;7.158;2023-06-24T09:05:51;27.50;52.00
13569;DHT22;6856;51.460;7.158;2023-06-24T09:08:26;27.50;51.40
13569;DHT22;6856;51.460;7.158;2023-06-24T09:11:00;27.60;51.40
13569;DHT22;6856;51.460;7.158;2023-06-24T09:13:35;27.70;51.00
13569;DHT22;6856;51.460;7.158;2023-06-24T09:16:14;27.80;50.40
13569;DHT22;6856;51.460;7.158;2023-06-24T09:18:49;27.80;50.50
13569;DHT22;6856;51.460;7.158;2023-06-24T09:21:27;27.90;50.30
13569;DHT22;6856;51.460;7.158;2023-06-24T09:24:02;28.00;50.20
13569;DHT22;6856;51.460;7.158;2023-06-24T09:26:42;28.00;49.80
13569;DHT22;6856;51.460;7.158;2023-06-24T09:29:17;28.10;50.00
13569;DHT22;6856;51.460;7.158;2023-06-24T09:31:52;28.20;49.90
13569;DHT22;6856;51.460;7.158;2023-06-24T09:34:29;28.30;49.60
13569;DHT22;6856;51.460;7.158;2023-06-24T09:37:05;28.40;49.80
13569;DHT22;6856;51.460;7.158;2023-06-24T09:39:40;28.40;49.50
13569;DHT22;6856;51.460;7.158;2023-06-24T09:42:14;28.50;49.00
13569;DHT22;6856;51.460;7.158;2023-06-24T09:44:53;28.50;49.00
13569;DHT22;6856;51.460;7.158;2023-06-24T09:47:28;28.60;48.40
13569;DHT22;6856;51.460;7.158;2023-06-24T09:50:03;28.60;48.70
13569;DHT22;6856;51.460;7.158;2023-06-24T09:52:39;28.70;48.50
13569;DHT22;6856;51.460;7.158;2023-06-24T09:55:15;28.80;49.00
13569;DHT22;6856;51.460;7.158;2023-06-24T09:57:51;28.80;47.90
13569;DHT22;6856;51.460;7.158;2023-06-24T10:00:26;28.90;48.50
13569;DHT22;6856;51.460;7.158;2023-06-24T10:03:03;28.90;48.00
13569;DHT22;6856;51.460;7.158;2023-06-24T10:05:37;29.00;47.30
13569;DHT22;6856;51.460;7.158;2023-06-24T10:08:14;29.10;47.50
13569;DHT22;6856;51.460;7.158;2023-06-24T10:10:48;29.20;47.70
13569;DHT22;6856;51.460;7.158;2023-06-24T10:13:23;29.20;47.70
13569;DHT22;6856;51.460;7.158;2023-06-24T10:15:58;29.30;46.70
13569;DHT22;6856;51.460;7.158;2023-06-24T10:18:33;29.40;46.60
13569;DHT22;6856;51.460;7.158;2023-06-24T10:21:10;29.40;46.60
13569;DHT22;6856;51.460;7.158;2023-06-24T10:23:53;29.50;46.90
13569;DHT22;6856;51.460;7.158;2023-06-24T10:26:28;29.60;46.00
13569;DHT22;6856;51.460;7.158;2023-06-24T10:29:09;29.60;46.30
13569;DHT22;6856;51.460;7.158;2023-06-24T10:31:55;29.70;46.50
13569;DHT22;6856;51.460;7.158;2023-06-24T10:34:32;29.80;44.70
13569;DHT22;6856;51.460;7.158;2023-06-24T10:37:10;29.80;44.60
13569;DHT22;6856;51.460;7.158;2023-06-24T10:39:51;29.90;44.90
13569;DHT22;6856;51.460;7.158;2023-06-24T10:42:33;29.90;45.20
13569;DHT22;6856;51.460;7.158;2023-06-24T10:45:19;30.00;44.40
13569;DHT22;6856;51.460;7.158;2023-06-24T10:47:53;30.00;44.70
13569;DHT22;6856;51.460;7.158;2023-06-24T10:50:28;30.10;44.50
13569;DHT22;6856;51.460;7.158;2023-06-24T10:53:08;30.20;44.40
13569;DHT22;6856;51.460;7.158;2023-06-24T10:55:44;30.20;43.60
13569;DHT22;6856;51.460;7.158;2023-06-24T10:58:19;30.20;43.00
13569;DHT22;6856;51.460;7.158;2023-06-24T11:00:53;30.30;42.70
13569;DHT22;6856;51.460;7.158;2023-06-24T11:03:40;30.30;42.30
13569;DHT22;6856;51.460;7.158;2023-06-24T11:06:15;30.30;43.10
13569;DHT22;6856;51.460;7.158;2023-06-24T11:08:49;30.30;43.10
13569;DHT22;6856;51.460;7.158;2023-06-24T11:11:25;30.40;43.30
13569;DHT22;6856;51.460;7.158;2023-06-24T11:13:59;30.40;42.40
13569;DHT22;6856;51.460;7.158;2023-06-24T11:16:33;30.50;42.20
13569;DHT22;6856;51.460;7.158;2023-06-24T11:19:09;30.50;42.60
13569;DHT22;6856;51.460;7.158;2023-06-24T11:21:43;30.60;42.40
13569;DHT22;6856;51.460;7.158;2023-06-24T11:24:17;30.60;42.00
13569;DHT22;6856;51.460;7.158;2023-06-24T11:26:52;30.60;41.80
13569;DHT22;6856;51.460;7.158;2023-06-24T11:29:29;30.70;41.30
13569;DHT22;6856;51.460;7.158;2023-06-24T11:32:07;30.70;41.40
13569;DHT22;6856;51.460;7.158;2023-06-24T11:34:42;30.80;40.50
13569;DHT22;6856;51.460;7.158;2023-06-24T11:37:17;30.80;39.80
13569;DHT22;6856;51.460;7.158;2023-06-24T11:40:01;30.90;40.20
13569;DHT22;6856;51.460;7.158;2023-06-24T11:42:39;31.00;40.00
13569;DHT22;6856;51.460;7.158;2023-06-24T11:45:20;31.00;40.80
13569;DHT22;6856;51.460;7.158;2023-06-24T11:48:01;31.10;39.70
13569;DHT22;6856;51.460;7.158;2023-06-24T11:50:39;31.20;40.10
13569;DHT22;6856;51.460;7.158;2023-06-24T11:53:13;31.40;39.50
13569;DHT22;6856;51.460;7.158;2023-06-24T11:55:52;31.30;39.50
13569;DHT22;6856;51.460;7.158;2023-06-24T11:58:34;31.40;38.90
13569;DHT22;6856;51.460;7.158;2023-06-24T12:01:09;31.40;39.10
13569;DHT22;6856;51.460;7.158;2023-06-24T12:03:43;31.40;38.40
13569;DHT22;6856;51.460;7.158;2023-06-24T12:06:17;31.50;38.50
13569;DHT22;6856;51.460;7.158;2023-06-24T12:08:51;31.50;38.30
13569;DHT22;6856;51.460;7.158;2023-06-24T12:11:25;31.60;38.20
13569;DHT22;6856;51.460;7.158;2023-06-24T12:14:02;31.60;37.70
13569;DHT22;6856;51.460;7.158;2023-06-24T12:16:38;31.60;37.50
13569;DHT22;6856;51.460;7.158;2023-06-24T12:19:13;31.60;37.70
13569;DHT22;6856;51.460;7.158;2023-06-24T12:21:47;31.70;37.30
13569;DHT22;6856;51.460;7.158;2023-06-24T12:24:21;31.70;37.10
13569;DHT22;6856;51.460;7.158;2023-06-24T12:26:59;31.70;38.00
13569;DHT22;6856;51.460;7.158;2023-06-24T12:29:35;31.70;37.90
13569;DHT22;6856;51.460;7.158;2023-06-24T12:32:09;31.80;38.00
13569;DHT22;6856;51.460;7.158;2023-06-24T12:34:43;31.80;37.90
13569;DHT22;6856;51.460;7.158;2023-06-24T12:37:17;31.80;38.00
13569;DHT22;6856;51.460;7.158;2023-06-24T12:39:51;31.90;38.00
13569;DHT22;6856;51.460;7.158;2023-06-24T12:42:28;31.90;38.80
13569;DHT22;6856;51.460;7.158;2023-06-24T12:45:05;31.90;38.40
13569;DHT22;6856;51.460;7.158;2023-06-24T12:47:39;32.00;37.50
13569;DHT22;6856;51.460;7.158;2023-06-24T12:50:14;32.00;37.60
13569;DHT22;6856;51.460;7.158;2023-06-24T12:52:48;32.00;37.60
13569;DHT22;6856;51.460;7.158;2023-06-24T12:55:22;32.00;37.40
13569;DHT22;6856;51.460;7.158;2023-06-24T12:57:56;32.00;37.50
13569;DHT22;6856;51.460;7.158;2023-06-24T13:00:32;32.00;36.90
13569;DHT22;6856;51.460;7.158;2023-06-24T13:03:06;32.00;36.80
13569;DHT22;6856;51.460;7.158;2023-06-24T13:05:40;32.00;36.50
13569;DHT22;6856;51.460;7.158;2023-06-24T13:08:14;32.00;35.60
13569;DHT22;6856;51.460;7.158;2023-06-24T13:10:48;32.00;35.00
13569;DHT22;6856;51.460;7.158;2023-06-24T13:13:23;32.00;35.90
13569;DHT22;6856;51.460;7.158;2023-06-24T13:15:59;32.00;36.50
13569;DHT22;6856;51.460;7.158;2023-06-24T13:18:32;32.00;36.90
13569;DHT22;6856;51.460;7.158;2023-06-24T13:21:06;32.00;37.20
13569;DHT22;6856;51.460;7.158;2023-06-24T13:23:48;32.00;36.60
13569;DHT22;6856;51.460;7.158;2023-06-24T13:26:22;32.00;35.80
13569;DHT22;6856;51.460;7.158;2023-06-24T13:28:57;32.00;35.50
13569;DHT22;6856;51.460;7.158;2023-06-24T13:31:33;32.00;35.40
13569;DHT22;6856;51.460;7.158;2023-06-24T13:34:07;32.00;34.70
13569;DHT22;6856;51.460;7.158;2023-06-24T13:36:43;32.00;35.50
13569;DHT22;6856;51.460;7.158;2023-06-24T13:39:16;32.00;35.20
13569;DHT22;6856;51.460;7.158;2023-06-24T13:41:50;32.00;35.60
13569;DHT22;6856;51.460;7.158;2023-06-24T13:44:24;32.00;35.50
13569;DHT22;6856;51.460;7.158;2023-06-24T13:47:00;32.00;35.30
13569;DHT22;6856;51.460;7.158;2023-06-24T13:49:34;32.00;35.00
13569;DHT22;6856;51.460;7.158;2023-06-24T13:52:08;32.00;35.10
13569;DHT22;6856;51.460;7.158;2023-06-24T13:54:43;32.00;35.50
13569;DHT22;6856;51.460;7.158;2023-06-24T13:57:17;31.90;35.20
13569;DHT22;6856;51.460;7.158;2023-06-24T13:59:52;31.90;35.90
13569;DHT22;6856;51.460;7.158;2023-06-24T14:02:28;31.90;35.40
13569;DHT22;6856;51.460;7.158;2023-06-24T14:05:02;31.90;35.60
13569;DHT22;6856;51.460;7.158;2023-06-24T14:07:36;32.00;35.80
13569;DHT22;6856;51.460;7.158;2023-06-24T14:10:10;32.00;36.00
13569;DHT22;6856;51.460;7.158;2023-06-24T14:12:44;31.90;36.20
13569;DHT22;6856;51.460;7.158;2023-06-24T14:15:18;31.90;35.90
13569;DHT22;6856;51.460;7.158;2023-06-24T14:17:54;31.90;35.80
13569;DHT22;6856;51.460;7.158;2023-06-24T14:20:28;31.90;36.20
13569;DHT22;6856;51.460;7.158;2023-06-24T14:23:03;31.90;36.70
13569;DHT22;6856;51.460;7.158;2023-06-24T14:25:37;31.90;36.70
13569;DHT22;6856;51.460;7.158;2023-06-24T14:28:11;31.90;35.90
13569;DHT22;6856;51.460;7.158;2023-06-24T14:30:46;31.90;36.00
13569;DHT22;6856;51.460;7.158;2023-06-24T14:33:21;31.90;35.70
13569;DHT22;6856;51.460;7.158;2023-06-24T14:35:56;31.90;35.90
13569;DHT22;6856;51.460;7.158;2023-06-24T14:38:29;31.90;35.60
13569;DHT22;6856;51.460;7.158;2023-06-24T14:41:03;31.90;36.00
13569;DHT22;6856;51.460;7.158;2023-06-24T14:43:39;31.90;35.60
13569;DHT22;6856;51.460;7.158;2023-06-24T14:46:14;31.90;35.80
13569;DHT22;6856;51.460;7.158;2023-06-24T14:48:49;31.90;36.00
13569;DHT22;6856;51.460;7.158;2023-06-24T14:51:23;31.90;36.20
13569;DHT22;6856;51.460;7.158;2023-06-24T14:53:59;31.90;36.20
13569;DHT22;6856;51.460;7.158;2023-06-24T14:56:33;31.90;35.60
13569;DHT22;6856;51.460;7.158;2023-06-24T14:59:06;31.90;35.50
13569;DHT22;6856;51.460;7.158;2023-06-24T15:01:41;31.90;35.90
13569;DHT22;6856;51.460;7.158;2023-06-24T15:04:17;31.90;35.90
13569;DHT22;6856;51.460;7.158;2023-06-24T15:06:54;31.90;35.70
13569;DHT22;6856;51.460;7.158;2023-06-24T15:09:28;31.80;35.20
13569;DHT22;6856;51.460;7.158;2023-06-24T15:12:03;31.80;35.70
13569;DHT22;6856;51.460;7.158;2023-06-24T15:14:37;31.70;35.30
13569;DHT22;6856;51.460;7.158;2023-06-24T15:17:11;31.70;35.40
13569;DHT22;6856;51.460;7.158;2023-06-24T15:19:46;31.70;35.30
13569;DHT22;6856;51.460;7.158;2023-06-24T15:22:20;31.70;35.80
13569;DHT22;6856;51.460;7.158;2023-06-24T15:24:55;31.60;35.30
13569;DHT22;6856;51.460;7.158;2023-06-24T15:27:29;31.60;35.20
13569;DHT22;6856;51.460;7.158;2023-06-24T15:30:04;31.60;35.60
13569;DHT22;6856;51.460;7.158;2023-06-24T15:32:39;31.60;35.70
13569;DHT22;6856;51.460;7.158;2023-06-24T15:35:16;31.70;34.90
13569;DHT22;6856;51.460;7.158;2023-06-24T15:37:49;31.70;34.80
13569;DHT22;6856;51.460;7.158;2023-06-24T15:40:23;31.70;34.50
13569;DHT22;6856;51.460;7.158;2023-06-24T15:42:57;31.60;34.80
13569;DHT22;6856;51.460;7.158;2023-06-24T15:45:31;31.70;35.20
13569;DHT22;6856;51.460;7.158;2023-06-24T15:48:05;31.70;34.90
13569;DHT22;6856;51.460;7.158;2023-06-24T15:50:41;31.70;35.00
13569;DHT22;6856;51.460;7.158;2023-06-24T15:53:15;31.70;34.70
13569;DHT22;6856;51.460;7.158;2023-06-24T15:55:49;31.70;34.50
13569;DHT22;6856;51.460;7.158;2023-06-24T15:58:23;31.70;33.90
13569;DHT22;6856;51.460;7.158;2023-06-24T16:00:57;31.70;34.70
13569;DHT22;6856;51.460;7.158;2023-06-24T16:03:31;31.70;34.40
13569;DHT22;6856;51.460;7.158;2023-06-24T16:06:07;31.70;34.00
13569;DHT22;6856;51.460;7.158;2023-06-24T16:08:41;31.70;34.20
13569;DHT22;6856;51.460;7.158;2023-06-24T16:11:16;31.70;34.10
13569;DHT22;6856;51.460;7.158;2023-06-24T16:13:50;31.70;33.90
13569;DHT22;6856;51.460;7.158;2023-06-24T16:16:27;31.70;34.40
13569;DHT22;6856;51.460;7.158;2023-06-24T16:19:01;31.70;33.90
13569;DHT22;6856;51.460;7.158;2023-06-24T16:21:37;31.70;34.10
13569;DHT22;6856;51.460;7.158;2023-06-24T16:24:11;31.70;33.90
13569;DHT22;6856;51.460;7.158;2023-06-24T16:26:45;31.80;34.70
13569;DHT22;6856;51.460;7.158;2023-06-24T16:29:24;31.80;34.00
13569;DHT22;6856;51.460;7.158;2023-06-24T16:31:57;31.70;34.30
13569;DHT22;6856;51.460;7.158;2023-06-24T16:34:31;31.70;34.30
13569;DHT22;6856;51.460;7.158;2023-06-24T16:37:07;31.80;34.90
13569;DHT22;6856;51.460;7.158;2023-06-24T16:39:41;31.80;34.60
13569;DHT22;6856;51.460;7.158;2023-06-24T16:42:15;31.80;33.80
13569;DHT22;6856;51.460;7.158;2023-06-24T16:44:50;31.80;34.10